sensor_id;sensor_type;location;lat;lon;timestamp;P1;durP1;ratioP1;P2;durP2;ratioP2
42616;SDS011;28250;52.320;0.360;2023-04-25T00:00:03;14.93;;;3.80;;
42616;SDS011;28250;52.320;0.360;2023-04-25T00:02:37;15.77;;;2.92;;
42616;SDS011;28250;52.320;0.360;2023-04-25T00:05:03;9.30;;;2.22;;
42616;SDS011;28250;52.320;0.360;2023-04-25T00:07:30;14.52;;;2.70;;
42616;SDS011;28250;52.320;0.360;2023-04-25T00:09:57;12.63;;;2.30;;
42616;SDS011;28250;52.320;0.360;2023-04-25T00:12:24;11.60;;;2.38;;
42616;SDS011;28250;52.320;0.360;2023-04-25T00:14:51;9.13;;;2.25;;
42616;SDS011;28250;52.320;0.360;2023-04-25T00:17:18;5.57;;;1.87;;
42616;SDS011;28250;52.320;0.360;2023-04-25T00:19:47;8.43;;;2.42;;
42616;SDS011;28250;52.320;0.360;2023-04-25T00:22:13;8.65;;;2.40;;
42616;SDS011;28250;52.320;0.360;2023-04-25T00:24:39;12.20;;;2.45;;
42616;SDS011;28250;52.320;0.360;2023-04-25T00:27:05;10.75;;;2.40;;
42616;SDS011;28250;52.320;0.360;2023-04-25T00:29:31;10.23;;;2.25;;
42616;SDS011;28250;52.320;0.360;2023-04-25T00:31:58;11.68;;;2.40;;
42616;SDS011;28250;52.320;0.360;2023-04-25T00:34:24;8.60;;;2.03;;
42616;SDS011;28250;52.320;0.360;2023-04-25T00:36:50;8.38;;;2.25;;
42616;SDS011;28250;52.320;0.360;2023-04-25T00:39:16;9.05;;;2.30;;
42616;SDS011;28250;52.320;0.360;2023-04-25T00:41:42;9.88;;;2.30;;
42616;SDS011;28250;52.320;0.360;2023-04-25T00:44:10;11.93;;;2.92;;
42616;SDS011;28250;52.320;0.360;2023-04-25T00:46:38;8.02;;;1.90;;
42616;SDS011;28250;52.320;0.360;2023-04-25T00:49:05;11.45;;;2.50;;
42616;SDS011;28250;52.320;0.360;2023-04-25T00:51:31;11.73;;;2.97;;
42616;SDS011;28250;52.320;0.360;2023-04-25T00:53:59;14.55;;;3.22;;
42616;SDS011;28250;52.320;0.360;2023-04-25T00:56:25;12.65;;;2.42;;
42616;SDS011;28250;52.320;0.360;2023-04-25T00:58:52;5.68;;;2.45;;
42616;SDS011;28250;52.320;0.360;2023-04-25T01:01:22;10.38;;;2.25;;
42616;SDS011;28250;52.320;0.360;2023-04-25T01:03:48;11.18;;;2.03;;
42616;SDS011;28250;52.320;0.360;2023-04-25T01:06:16;6.63;;;2.00;;
42616;SDS011;28250;52.320;0.360;2023-04-25T01:08:42;11.23;;;3.03;;
42616;SDS011;28250;52.320;0.360;2023-04-25T01:11:08;9.30;;;2.08;;
42616;SDS011;28250;52.320;0.360;2023-04-25T01:13:34;10.88;;;2.65;;
42616;SDS011;28250;52.320;0.360;2023-04-25T01:16:01;8.05;;;1.95;;
42616;SDS011;28250;52.320;0.360;2023-04-25T01:18:28;6.50;;;1.85;;
42616;SDS011;28250;52.320;0.360;2023-04-25T01:20:54;7.13;;;2.03;;
42616;SDS011;28250;52.320;0.360;2023-04-25T01:23:27;9.32;;;1.98;;
42616;SDS011;28250;52.320;0.360;2023-04-25T01:25:53;9.43;;;1.67;;
42616;SDS011;28250;52.320;0.360;2023-04-25T01:28:19;10.57;;;2.42;;
42616;SDS011;28250;52.320;0.360;2023-04-25T01:30:47;15.10;;;2.35;;
42616;SDS011;28250;52.320;0.360;2023-04-25T01:33:13;6.50;;;1.85;;
42616;SDS011;28250;52.320;0.360;2023-04-25T01:38:07;9.02;;;1.70;;
42616;SDS011;28250;52.320;0.360;2023-04-25T01:40:33;6.05;;;1.88;;
42616;SDS011;28250;52.320;0.360;2023-04-25T01:43:03;10.93;;;2.05;;
42616;SDS011;28250;52.320;0.360;2023-04-25T01:45:29;9.50;;;2.30;;
42616;SDS011;28250;52.320;0.360;2023-04-25T01:47:55;9.43;;;2.13;;
42616;SDS011;28250;52.320;0.360;2023-04-25T01:50:24;9.73;;;2.47;;
42616;SDS011;28250;52.320;0.360;2023-04-25T01:52:51;5.97;;;1.90;;
42616;SDS011;28250;52.320;0.360;2023-04-25T01:57:52;5.32;;;1.92;;
42616;SDS011;28250;52.320;0.360;2023-04-25T02:00:25;8.73;;;2.00;;
42616;SDS011;28250;52.320;0.360;2023-04-25T02:02:51;6.50;;;2.05;;
42616;SDS011;28250;52.320;0.360;2023-04-25T02:05:26;5.78;;;1.80;;
42616;SDS011;28250;52.320;0.360;2023-04-25T02:07:52;11.00;;;2.20;;
42616;SDS011;28250;52.320;0.360;2023-04-25T02:10:19;14.85;;;2.10;;
42616;SDS011;28250;52.320;0.360;2023-04-25T02:13:04;10.02;;;2.10;;
42616;SDS011;28250;52.320;0.360;2023-04-25T02:15:43;5.03;;;2.25;;
42616;SDS011;28250;52.320;0.360;2023-04-25T02:18:17;14.57;;;2.70;;
42616;SDS011;28250;52.320;0.360;2023-04-25T02:20:43;10.43;;;2.30;;
42616;SDS011;28250;52.320;0.360;2023-04-25T02:23:10;18.27;;;2.55;;
42616;SDS011;28250;52.320;0.360;2023-04-25T02:25:36;15.93;;;2.63;;
42616;SDS011;28250;52.320;0.360;2023-04-25T02:28:02;9.00;;;2.22;;
42616;SDS011;28250;52.320;0.360;2023-04-25T02:30:29;9.68;;;2.67;;
42616;SDS011;28250;52.320;0.360;2023-04-25T02:32:55;9.37;;;2.33;;
42616;SDS011;28250;52.320;0.360;2023-04-25T02:35:21;9.57;;;2.78;;
42616;SDS011;28250;52.320;0.360;2023-04-25T02:37:47;9.43;;;2.58;;
42616;SDS011;28250;52.320;0.360;2023-04-25T02:40:13;11.73;;;2.80;;
42616;SDS011;28250;52.320;0.360;2023-04-25T02:42:39;8.02;;;2.33;;
42616;SDS011;28250;52.320;0.360;2023-04-25T02:45:05;9.30;;;2.45;;
42616;SDS011;28250;52.320;0.360;2023-04-25T02:47:33;8.25;;;2.42;;
42616;SDS011;28250;52.320;0.360;2023-04-25T02:49:59;10.18;;;2.40;;
42616;SDS011;28250;52.320;0.360;2023-04-25T02:52:25;11.63;;;3.10;;
42616;SDS011;28250;52.320;0.360;2023-04-25T02:54:58;11.45;;;2.50;;
42616;SDS011;28250;52.320;0.360;2023-04-25T02:57:26;15.93;;;2.92;;
42616;SDS011;28250;52.320;0.360;2023-04-25T02:59:52;12.63;;;2.78;;
42616;SDS011;28250;52.320;0.360;2023-04-25T03:02:18;8.88;;;2.65;;
42616;SDS011;28250;52.320;0.360;2023-04-25T03:04:44;7.35;;;2.70;;
42616;SDS011;28250;52.320;0.360;2023-04-25T03:07:11;9.10;;;3.60;;
42616;SDS011;28250;52.320;0.360;2023-04-25T03:09:37;13.30;;;2.80;;
42616;SDS011;28250;52.320;0.360;2023-04-25T03:12:03;12.20;;;2.78;;
42616;SDS011;28250;52.320;0.360;2023-04-25T03:14:32;8.63;;;2.72;;
42616;SDS011;28250;52.320;0.360;2023-04-25T03:16:58;8.30;;;2.65;;
42616;SDS011;28250;52.320;0.360;2023-04-25T03:19:24;10.20;;;2.78;;
42616;SDS011;28250;52.320;0.360;2023-04-25T03:21:50;10.70;;;3.90;;
42616;SDS011;28250;52.320;0.360;2023-04-25T03:24:16;7.95;;;3.03;;
42616;SDS011;28250;52.320;0.360;2023-04-25T03:26:42;12.00;;;2.75;;
42616;SDS011;28250;52.320;0.360;2023-04-25T03:29:08;10.25;;;3.20;;
42616;SDS011;28250;52.320;0.360;2023-04-25T03:31:35;8.60;;;3.00;;
42616;SDS011;28250;52.320;0.360;2023-04-25T03:34:01;13.95;;;3.58;;
42616;SDS011;28250;52.320;0.360;2023-04-25T03:36:27;13.73;;;2.72;;
42616;SDS011;28250;52.320;0.360;2023-04-25T03:38:53;11.48;;;3.67;;
42616;SDS011;28250;52.320;0.360;2023-04-25T03:41:20;12.10;;;3.03;;
42616;SDS011;28250;52.320;0.360;2023-04-25T03:44:01;11.20;;;2.95;;
42616;SDS011;28250;52.320;0.360;2023-04-25T03:46:27;7.35;;;2.38;;
42616;SDS011;28250;52.320;0.360;2023-04-25T03:48:53;9.15;;;2.75;;
42616;SDS011;28250;52.320;0.360;2023-04-25T03:51:23;13.73;;;3.30;;
42616;SDS011;28250;52.320;0.360;2023-04-25T03:53:49;6.57;;;2.13;;
42616;SDS011;28250;52.320;0.360;2023-04-25T03:56:21;8.50;;;3.00;;
42616;SDS011;28250;52.320;0.360;2023-04-25T03:58:54;8.63;;;2.90;;
42616;SDS011;28250;52.320;0.360;2023-04-25T04:01:23;9.95;;;2.95;;
42616;SDS011;28250;52.320;0.360;2023-04-25T04:03:50;9.32;;;2.70;;
42616;SDS011;28250;52.320;0.360;2023-04-25T04:06:16;9.18;;;2.50;;
42616;SDS011;28250;52.320;0.360;2023-04-25T04:08:54;10.27;;;2.97;;
42616;SDS011;28250;52.320;0.360;2023-04-25T04:11:20;9.95;;;2.95;;
42616;SDS011;28250;52.320;0.360;2023-04-25T04:13:47;10.65;;;2.90;;
42616;SDS011;28250;52.320;0.360;2023-04-25T04:16:13;10.32;;;3.05;;
42616;SDS011;28250;52.320;0.360;2023-04-25T04:18:41;9.43;;;3.08;;
42616;SDS011;28250;52.320;0.360;2023-04-25T04:21:12;10.27;;;2.80;;
42616;SDS011;28250;52.320;0.360;2023-04-25T04:23:40;13.48;;;3.17;;
42616;SDS011;28250;52.320;0.360;2023-04-25T04:26:08;12.30;;;3.25;;
42616;SDS011;28250;52.320;0.360;2023-04-25T04:28:41;12.40;;;3.35;;
42616;SDS011;28250;52.320;0.360;2023-04-25T04:31:29;12.32;;;3.22;;
42616;SDS011;28250;52.320;0.360;2023-04-25T04:33:55;11.90;;;3.42;;
42616;SDS011;28250;52.320;0.360;2023-04-25T04:36:21;11.95;;;3.00;;
42616;SDS011;28250;52.320;0.360;2023-04-25T04:38:48;11.43;;;3.33;;
42616;SDS011;28250;52.320;0.360;2023-04-25T04:41:33;18.83;;;4.20;;
42616;SDS011;28250;52.320;0.360;2023-04-25T04:44:12;10.52;;;3.05;;
42616;SDS011;28250;52.320;0.360;2023-04-25T04:47:04;6.03;;;2.95;;
42616;SDS011;28250;52.320;0.360;2023-04-25T04:49:58;12.45;;;3.60;;
42616;SDS011;28250;52.320;0.360;2023-04-25T04:52:31;14.98;;;3.95;;
42616;SDS011;28250;52.320;0.360;2023-04-25T04:55:33;14.82;;;3.15;;
42616;SDS011;28250;52.320;0.360;2023-04-25T04:58:14;10.70;;;3.45;;
42616;SDS011;28250;52.320;0.360;2023-04-25T05:00:50;10.35;;;3.45;;
42616;SDS011;28250;52.320;0.360;2023-04-25T05:03:39;19.13;;;3.63;;
42616;SDS011;28250;52.320;0.360;2023-04-25T05:06:12;9.02;;;3.13;;
42616;SDS011;28250;52.320;0.360;2023-04-25T05:09:07;9.88;;;3.25;;
42616;SDS011;28250;52.320;0.360;2023-04-25T05:12:03;12.65;;;3.50;;
42616;SDS011;28250;52.320;0.360;2023-04-25T05:14:38;10.75;;;3.75;;
42616;SDS011;28250;52.320;0.360;2023-04-25T05:17:11;12.73;;;3.70;;
42616;SDS011;28250;52.320;0.360;2023-04-25T05:20:03;16.40;;;4.70;;
42616;SDS011;28250;52.320;0.360;2023-04-25T05:22:58;13.43;;;3.47;;
42616;SDS011;28250;52.320;0.360;2023-04-25T05:25:42;9.73;;;3.28;;
42616;SDS011;28250;52.320;0.360;2023-04-25T05:28:33;20.40;;;4.45;;
42616;SDS011;28250;52.320;0.360;2023-04-25T05:31:12;16.58;;;3.60;;
42616;SDS011;28250;52.320;0.360;2023-04-25T05:33:52;13.52;;;3.17;;
42616;SDS011;28250;52.320;0.360;2023-04-25T05:36:19;12.00;;;3.97;;
42616;SDS011;28250;52.320;0.360;2023-04-25T05:38:45;16.42;;;4.20;;
42616;SDS011;28250;52.320;0.360;2023-04-25T05:41:20;12.45;;;3.10;;
42616;SDS011;28250;52.320;0.360;2023-04-25T05:44:10;13.57;;;3.33;;
42616;SDS011;28250;52.320;0.360;2023-04-25T05:46:48;10.93;;;3.42;;
42616;SDS011;28250;52.320;0.360;2023-04-25T05:49:14;13.30;;;4.00;;
42616;SDS011;28250;52.320;0.360;2023-04-25T05:52:03;16.52;;;4.80;;
42616;SDS011;28250;52.320;0.360;2023-04-25T05:54:55;9.52;;;3.95;;
42616;SDS011;28250;52.320;0.360;2023-04-25T05:57:25;13.38;;;3.92;;
42616;SDS011;28250;52.320;0.360;2023-04-25T05:59:54;12.23;;;3.33;;
42616;SDS011;28250;52.320;0.360;2023-04-25T06:02:21;12.90;;;4.05;;
42616;SDS011;28250;52.320;0.360;2023-04-25T06:04:52;12.93;;;4.35;;
42616;SDS011;28250;52.320;0.360;2023-04-25T06:07:18;10.52;;;3.80;;
42616;SDS011;28250;52.320;0.360;2023-04-25T06:09:45;10.07;;;3.88;;
42616;SDS011;28250;52.320;0.360;2023-04-25T06:12:11;10.77;;;3.45;;
42616;SDS011;28250;52.320;0.360;2023-04-25T06:14:37;12.63;;;3.30;;
42616;SDS011;28250;52.320;0.360;2023-04-25T06:17:04;11.88;;;3.67;;
42616;SDS011;28250;52.320;0.360;2023-04-25T06:19:34;7.95;;;3.78;;
42616;SDS011;28250;52.320;0.360;2023-04-25T06:24:27;12.23;;;3.80;;
42616;SDS011;28250;52.320;0.360;2023-04-25T06:26:54;10.43;;;3.65;;
42616;SDS011;28250;52.320;0.360;2023-04-25T06:29:20;12.18;;;3.50;;
42616;SDS011;28250;52.320;0.360;2023-04-25T06:31:46;13.18;;;3.83;;
42616;SDS011;28250;52.320;0.360;2023-04-25T06:34:12;10.45;;;3.40;;
42616;SDS011;28250;52.320;0.360;2023-04-25T06:39:08;12.85;;;4.47;;
42616;SDS011;28250;52.320;0.360;2023-04-25T06:41:34;9.37;;;3.97;;
42616;SDS011;28250;52.320;0.360;2023-04-25T06:44:05;11.98;;;3.63;;
42616;SDS011;28250;52.320;0.360;2023-04-25T06:46:38;14.45;;;3.50;;
42616;SDS011;28250;52.320;0.360;2023-04-25T06:49:04;13.73;;;4.10;;
42616;SDS011;28250;52.320;0.360;2023-04-25T06:51:30;13.70;;;3.60;;
42616;SDS011;28250;52.320;0.360;2023-04-25T06:53:57;14.75;;;4.40;;
42616;SDS011;28250;52.320;0.360;2023-04-25T06:56:29;13.63;;;3.70;;
42616;SDS011;28250;52.320;0.360;2023-04-25T06:59:02;16.13;;;3.83;;
42616;SDS011;28250;52.320;0.360;2023-04-25T07:01:31;14.65;;;3.17;;
42616;SDS011;28250;52.320;0.360;2023-04-25T07:03:59;9.10;;;3.35;;
42616;SDS011;28250;52.320;0.360;2023-04-25T07:06:25;9.93;;;3.13;;
42616;SDS011;28250;52.320;0.360;2023-04-25T07:08:53;15.38;;;3.58;;
42616;SDS011;28250;52.320;0.360;2023-04-25T07:11:20;12.20;;;3.38;;
42616;SDS011;28250;52.320;0.360;2023-04-25T07:13:46;13.93;;;4.18;;
42616;SDS011;28250;52.320;0.360;2023-04-25T07:16:12;15.65;;;3.30;;
42616;SDS011;28250;52.320;0.360;2023-04-25T07:18:38;11.10;;;4.00;;
42616;SDS011;28250;52.320;0.360;2023-04-25T07:21:04;11.63;;;3.28;;
42616;SDS011;28250;52.320;0.360;2023-04-25T07:23:32;10.60;;;2.75;;
42616;SDS011;28250;52.320;0.360;2023-04-25T07:26:00;13.18;;;3.25;;
42616;SDS011;28250;52.320;0.360;2023-04-25T07:28:28;10.18;;;3.13;;
42616;SDS011;28250;52.320;0.360;2023-04-25T07:30:54;9.10;;;2.78;;
42616;SDS011;28250;52.320;0.360;2023-04-25T07:33:20;7.00;;;2.90;;
42616;SDS011;28250;52.320;0.360;2023-04-25T07:35:46;14.77;;;3.45;;
42616;SDS011;28250;52.320;0.360;2023-04-25T07:38:13;10.97;;;3.30;;
42616;SDS011;28250;52.320;0.360;2023-04-25T07:40:39;14.45;;;3.22;;
42616;SDS011;28250;52.320;0.360;2023-04-25T07:43:10;9.40;;;3.00;;
42616;SDS011;28250;52.320;0.360;2023-04-25T07:45:49;9.60;;;2.92;;
42616;SDS011;28250;52.320;0.360;2023-04-25T07:48:17;14.07;;;3.05;;
42616;SDS011;28250;52.320;0.360;2023-04-25T07:50:45;9.30;;;3.05;;
42616;SDS011;28250;52.320;0.360;2023-04-25T07:53:11;16.27;;;3.00;;
42616;SDS011;28250;52.320;0.360;2023-04-25T07:55:45;9.40;;;2.50;;
42616;SDS011;28250;52.320;0.360;2023-04-25T07:58:15;9.40;;;3.22;;
42616;SDS011;28250;52.320;0.360;2023-04-25T08:00:46;9.52;;;2.50;;
42616;SDS011;28250;52.320;0.360;2023-04-25T08:03:36;10.38;;;2.92;;
42616;SDS011;28250;52.320;0.360;2023-04-25T08:06:07;10.13;;;2.80;;
42616;SDS011;28250;52.320;0.360;2023-04-25T08:08:39;12.95;;;3.42;;
42616;SDS011;28250;52.320;0.360;2023-04-25T08:13:33;8.32;;;2.50;;
42616;SDS011;28250;52.320;0.360;2023-04-25T08:15:59;6.55;;;2.25;;
42616;SDS011;28250;52.320;0.360;2023-04-25T08:18:25;13.63;;;2.75;;
42616;SDS011;28250;52.320;0.360;2023-04-25T08:20:51;9.70;;;2.30;;
42616;SDS011;28250;52.320;0.360;2023-04-25T08:23:17;7.80;;;2.40;;
42616;SDS011;28250;52.320;0.360;2023-04-25T08:26:01;7.78;;;1.77;;
42616;SDS011;28250;52.320;0.360;2023-04-25T08:28:29;13.23;;;2.75;;
42616;SDS011;28250;52.320;0.360;2023-04-25T08:30:57;8.63;;;2.25;;
42616;SDS011;28250;52.320;0.360;2023-04-25T08:33:25;15.25;;;2.42;;
42616;SDS011;28250;52.320;0.360;2023-04-25T08:36:05;9.80;;;2.47;;
42616;SDS011;28250;52.320;0.360;2023-04-25T08:38:31;7.20;;;2.05;;
42616;SDS011;28250;52.320;0.360;2023-04-25T08:40:58;10.85;;;2.83;;
42616;SDS011;28250;52.320;0.360;2023-04-25T08:43:26;11.68;;;2.70;;
42616;SDS011;28250;52.320;0.360;2023-04-25T08:45:59;7.78;;;2.42;;
42616;SDS011;28250;52.320;0.360;2023-04-25T08:48:43;8.43;;;2.33;;
42616;SDS011;28250;52.320;0.360;2023-04-25T08:51:15;6.32;;;2.05;;
42616;SDS011;28250;52.320;0.360;2023-04-25T08:53:49;7.90;;;1.95;;
42616;SDS011;28250;52.320;0.360;2023-04-25T08:56:17;9.10;;;2.30;;
42616;SDS011;28250;52.320;0.360;2023-04-25T08:58:47;9.48;;;2.55;;
42616;SDS011;28250;52.320;0.360;2023-04-25T09:01:16;8.13;;;2.05;;
42616;SDS011;28250;52.320;0.360;2023-04-25T09:03:48;7.63;;;2.17;;
42616;SDS011;28250;52.320;0.360;2023-04-25T09:06:14;8.70;;;2.20;;
42616;SDS011;28250;52.320;0.360;2023-04-25T09:08:43;11.60;;;2.88;;
42616;SDS011;28250;52.320;0.360;2023-04-25T09:11:09;10.75;;;2.63;;
42616;SDS011;28250;52.320;0.360;2023-04-25T09:13:35;10.35;;;2.42;;
42616;SDS011;28250;52.320;0.360;2023-04-25T09:16:28;16.15;;;2.78;;
42616;SDS011;28250;52.320;0.360;2023-04-25T09:19:37;11.00;;;2.22;;
42616;SDS011;28250;52.320;0.360;2023-04-25T09:22:12;7.18;;;2.15;;
42616;SDS011;28250;52.320;0.360;2023-04-25T09:24:44;8.07;;;2.33;;
42616;SDS011;28250;52.320;0.360;2023-04-25T09:27:13;8.80;;;1.90;;
42616;SDS011;28250;52.320;0.360;2023-04-25T09:29:46;6.63;;;1.60;;
42616;SDS011;28250;52.320;0.360;2023-04-25T09:32:15;8.27;;;1.85;;
42616;SDS011;28250;52.320;0.360;2023-04-25T09:34:50;6.43;;;1.67;;
42616;SDS011;28250;52.320;0.360;2023-04-25T09:37:20;14.52;;;2.38;;
42616;SDS011;28250;52.320;0.360;2023-04-25T09:40:06;7.35;;;1.80;;
42616;SDS011;28250;52.320;0.360;2023-04-25T09:42:48;6.75;;;1.83;;
42616;SDS011;28250;52.320;0.360;2023-04-25T09:45:14;11.07;;;2.38;;
42616;SDS011;28250;52.320;0.360;2023-04-25T09:47:41;7.75;;;1.60;;
42616;SDS011;28250;52.320;0.360;2023-04-25T09:50:14;4.95;;;1.95;;
42616;SDS011;28250;52.320;0.360;2023-04-25T09:52:44;4.07;;;1.77;;
42616;SDS011;28250;52.320;0.360;2023-04-25T09:55:16;6.85;;;1.95;;
42616;SDS011;28250;52.320;0.360;2023-04-25T09:57:44;8.95;;;1.75;;
42616;SDS011;28250;52.320;0.360;2023-04-25T10:00:14;6.72;;;2.20;;
42616;SDS011;28250;52.320;0.360;2023-04-25T10:02:42;6.25;;;1.90;;
42616;SDS011;28250;52.320;0.360;2023-04-25T10:08:03;6.90;;;1.90;;
42616;SDS011;28250;52.320;0.360;2023-04-25T10:10:30;5.57;;;1.50;;
42616;SDS011;28250;52.320;0.360;2023-04-25T10:13:02;6.95;;;1.73;;
42616;SDS011;28250;52.320;0.360;2023-04-25T10:15:32;4.57;;;2.17;;
42616;SDS011;28250;52.320;0.360;2023-04-25T10:18:00;6.78;;;1.73;;
42616;SDS011;28250;52.320;0.360;2023-04-25T10:20:28;7.15;;;1.80;;
42616;SDS011;28250;52.320;0.360;2023-04-25T10:22:55;6.72;;;2.10;;
42616;SDS011;28250;52.320;0.360;2023-04-25T10:27:59;7.38;;;1.85;;
42616;SDS011;28250;52.320;0.360;2023-04-25T10:30:27;7.20;;;2.00;;
42616;SDS011;28250;52.320;0.360;2023-04-25T10:32:54;10.55;;;2.58;;
42616;SDS011;28250;52.320;0.360;2023-04-25T10:35:24;5.55;;;2.58;;
42616;SDS011;28250;52.320;0.360;2023-04-25T10:38:11;8.13;;;2.00;;
42616;SDS011;28250;52.320;0.360;2023-04-25T10:40:40;13.82;;;2.88;;
42616;SDS011;28250;52.320;0.360;2023-04-25T10:45:58;8.27;;;2.30;;
42616;SDS011;28250;52.320;0.360;2023-04-25T10:48:25;5.55;;;2.03;;
42616;SDS011;28250;52.320;0.360;2023-04-25T10:51:12;3.17;;;1.55;;
42616;SDS011;28250;52.320;0.360;2023-04-25T10:54:00;5.40;;;1.80;;
42616;SDS011;28250;52.320;0.360;2023-04-25T10:56:30;6.85;;;2.70;;
42616;SDS011;28250;52.320;0.360;2023-04-25T10:59:08;7.05;;;1.88;;
42616;SDS011;28250;52.320;0.360;2023-04-25T11:01:40;5.78;;;1.67;;
42616;SDS011;28250;52.320;0.360;2023-04-25T11:09:52;10.95;;;1.80;;
42616;SDS011;28250;52.320;0.360;2023-04-25T11:12:18;6.27;;;1.67;;
42616;SDS011;28250;52.320;0.360;2023-04-25T11:14:44;5.70;;;1.58;;
42616;SDS011;28250;52.320;0.360;2023-04-25T11:17:11;5.50;;;1.50;;
42616;SDS011;28250;52.320;0.360;2023-04-25T11:19:36;4.03;;;1.30;;
42616;SDS011;28250;52.320;0.360;2023-04-25T11:22:03;5.53;;;1.83;;
42616;SDS011;28250;52.320;0.360;2023-04-25T11:24:29;4.47;;;1.77;;
42616;SDS011;28250;52.320;0.360;2023-04-25T11:26:57;5.97;;;2.78;;
42616;SDS011;28250;52.320;0.360;2023-04-25T11:29:28;2.92;;;1.15;;
42616;SDS011;28250;52.320;0.360;2023-04-25T11:31:55;5.95;;;1.73;;
42616;SDS011;28250;52.320;0.360;2023-04-25T11:34:23;2.83;;;1.50;;
42616;SDS011;28250;52.320;0.360;2023-04-25T11:36:50;6.85;;;1.88;;
42616;SDS011;28250;52.320;0.360;2023-04-25T11:41:44;4.13;;;1.40;;
42616;SDS011;28250;52.320;0.360;2023-04-25T11:44:11;5.32;;;1.42;;
42616;SDS011;28250;52.320;0.360;2023-04-25T11:46:40;5.95;;;1.55;;
42616;SDS011;28250;52.320;0.360;2023-04-25T11:49:09;4.32;;;1.58;;
42616;SDS011;28250;52.320;0.360;2023-04-25T11:51:41;5.28;;;1.95;;
42616;SDS011;28250;52.320;0.360;2023-04-25T11:54:12;7.93;;;2.00;;
42616;SDS011;28250;52.320;0.360;2023-04-25T11:56:43;5.68;;;2.00;;
42616;SDS011;28250;52.320;0.360;2023-04-25T11:59:11;8.25;;;2.17;;
42616;SDS011;28250;52.320;0.360;2023-04-25T12:01:38;9.55;;;2.20;;
42616;SDS011;28250;52.320;0.360;2023-04-25T12:04:18;9.27;;;1.92;;
42616;SDS011;28250;52.320;0.360;2023-04-25T12:06:50;5.43;;;2.22;;
42616;SDS011;28250;52.320;0.360;2023-04-25T12:09:30;7.45;;;1.77;;
42616;SDS011;28250;52.320;0.360;2023-04-25T12:14:31;7.00;;;2.35;;
42616;SDS011;28250;52.320;0.360;2023-04-25T12:17:00;4.75;;;1.80;;
42616;SDS011;28250;52.320;0.360;2023-04-25T12:19:36;4.72;;;1.88;;
42616;SDS011;28250;52.320;0.360;2023-04-25T12:22:18;5.17;;;1.60;;
42616;SDS011;28250;52.320;0.360;2023-04-25T12:24:46;4.38;;;1.60;;
42616;SDS011;28250;52.320;0.360;2023-04-25T12:27:14;4.40;;;2.08;;
42616;SDS011;28250;52.320;0.360;2023-04-25T12:29:49;4.40;;;1.70;;
42616;SDS011;28250;52.320;0.360;2023-04-25T12:32:19;4.97;;;2.10;;
42616;SDS011;28250;52.320;0.360;2023-04-25T12:34:46;4.25;;;1.70;;
42616;SDS011;28250;52.320;0.360;2023-04-25T12:37:12;4.50;;;2.13;;
42616;SDS011;28250;52.320;0.360;2023-04-25T12:39:38;6.35;;;2.67;;
42616;SDS011;28250;52.320;0.360;2023-04-25T12:42:04;4.45;;;2.00;;
42616;SDS011;28250;52.320;0.360;2023-04-25T12:44:33;3.17;;;2.00;;
42616;SDS011;28250;52.320;0.360;2023-04-25T12:47:00;6.65;;;2.05;;
42616;SDS011;28250;52.320;0.360;2023-04-25T12:49:26;4.80;;;1.52;;
42616;SDS011;28250;52.320;0.360;2023-04-25T12:51:52;5.70;;;1.65;;
42616;SDS011;28250;52.320;0.360;2023-04-25T12:54:18;6.28;;;1.90;;
42616;SDS011;28250;52.320;0.360;2023-04-25T12:56:44;3.85;;;2.17;;
42616;SDS011;28250;52.320;0.360;2023-04-25T12:59:11;4.72;;;1.70;;
42616;SDS011;28250;52.320;0.360;2023-04-25T13:01:37;4.72;;;1.60;;
42616;SDS011;28250;52.320;0.360;2023-04-25T13:04:04;2.20;;;1.42;;
42616;SDS011;28250;52.320;0.360;2023-04-25T13:06:30;7.15;;;1.92;;
42616;SDS011;28250;52.320;0.360;2023-04-25T13:08:56;5.35;;;2.05;;
42616;SDS011;28250;52.320;0.360;2023-04-25T13:11:22;3.38;;;1.85;;
42616;SDS011;28250;52.320;0.360;2023-04-25T13:13:48;8.40;;;1.83;;
42616;SDS011;28250;52.320;0.360;2023-04-25T13:16:14;7.32;;;2.38;;
42616;SDS011;28250;52.320;0.360;2023-04-25T13:18:40;7.32;;;3.08;;
42616;SDS011;28250;52.320;0.360;2023-04-25T13:21:06;5.22;;;2.40;;
42616;SDS011;28250;52.320;0.360;2023-04-25T13:23:34;6.70;;;2.38;;
42616;SDS011;28250;52.320;0.360;2023-04-25T13:26:00;8.82;;;3.22;;
42616;SDS011;28250;52.320;0.360;2023-04-25T13:28:27;5.23;;;2.30;;
42616;SDS011;28250;52.320;0.360;2023-04-25T13:30:53;7.50;;;2.15;;
42616;SDS011;28250;52.320;0.360;2023-04-25T13:33:20;5.07;;;2.60;;
42616;SDS011;28250;52.320;0.360;2023-04-25T13:35:47;6.18;;;2.67;;
42616;SDS011;28250;52.320;0.360;2023-04-25T13:38:21;5.80;;;2.40;;
42616;SDS011;28250;52.320;0.360;2023-04-25T13:40:51;9.52;;;2.75;;
42616;SDS011;28250;52.320;0.360;2023-04-25T13:43:20;9.25;;;3.22;;
42616;SDS011;28250;52.320;0.360;2023-04-25T13:45:47;6.88;;;2.90;;
42616;SDS011;28250;52.320;0.360;2023-04-25T13:48:14;7.57;;;2.90;;
42616;SDS011;28250;52.320;0.360;2023-04-25T13:50:40;8.05;;;3.22;;
42616;SDS011;28250;52.320;0.360;2023-04-25T13:53:06;7.18;;;3.05;;
42616;SDS011;28250;52.320;0.360;2023-04-25T13:55:33;7.00;;;3.40;;
42616;SDS011;28250;52.320;0.360;2023-04-25T13:58:02;9.73;;;3.50;;
42616;SDS011;28250;52.320;0.360;2023-04-25T14:00:33;9.35;;;3.13;;
42616;SDS011;28250;52.320;0.360;2023-04-25T14:03:03;9.40;;;3.28;;
42616;SDS011;28250;52.320;0.360;2023-04-25T14:05:32;8.55;;;3.03;;
42616;SDS011;28250;52.320;0.360;2023-04-25T14:08:04;8.50;;;3.35;;
42616;SDS011;28250;52.320;0.360;2023-04-25T14:10:31;3.95;;;2.58;;
42616;SDS011;28250;52.320;0.360;2023-04-25T14:12:57;7.57;;;2.70;;
42616;SDS011;28250;52.320;0.360;2023-04-25T14:15:24;6.18;;;3.13;;
42616;SDS011;28250;52.320;0.360;2023-04-25T14:17:50;7.07;;;2.72;;
42616;SDS011;28250;52.320;0.360;2023-04-25T14:20:16;9.93;;;3.65;;
42616;SDS011;28250;52.320;0.360;2023-04-25T14:22:45;5.80;;;2.92;;
42616;SDS011;28250;52.320;0.360;2023-04-25T14:25:11;8.65;;;3.40;;
42616;SDS011;28250;52.320;0.360;2023-04-25T14:27:37;8.35;;;3.10;;
42616;SDS011;28250;52.320;0.360;2023-04-25T14:30:04;5.07;;;3.03;;
42616;SDS011;28250;52.320;0.360;2023-04-25T14:32:31;5.05;;;2.50;;
42616;SDS011;28250;52.320;0.360;2023-04-25T14:34:57;6.93;;;2.72;;
42616;SDS011;28250;52.320;0.360;2023-04-25T14:37:23;5.63;;;2.80;;
42616;SDS011;28250;52.320;0.360;2023-04-25T14:39:49;8.40;;;3.03;;
42616;SDS011;28250;52.320;0.360;2023-04-25T14:42:15;4.38;;;2.53;;
42616;SDS011;28250;52.320;0.360;2023-04-25T14:44:41;9.45;;;2.70;;
42616;SDS011;28250;52.320;0.360;2023-04-25T14:47:07;5.22;;;2.75;;
42616;SDS011;28250;52.320;0.360;2023-04-25T14:49:33;8.15;;;3.15;;
42616;SDS011;28250;52.320;0.360;2023-04-25T14:51:59;7.05;;;3.45;;
42616;SDS011;28250;52.320;0.360;2023-04-25T14:54:26;6.95;;;3.00;;
42616;SDS011;28250;52.320;0.360;2023-04-25T14:56:52;5.57;;;2.65;;
42616;SDS011;28250;52.320;0.360;2023-04-25T14:59:18;7.40;;;2.45;;
42616;SDS011;28250;52.320;0.360;2023-04-25T15:01:45;7.45;;;2.50;;
42616;SDS011;28250;52.320;0.360;2023-04-25T15:04:11;14.25;;;3.03;;
42616;SDS011;28250;52.320;0.360;2023-04-25T15:09:05;4.50;;;2.50;;
42616;SDS011;28250;52.320;0.360;2023-04-25T15:11:31;5.32;;;2.70;;
42616;SDS011;28250;52.320;0.360;2023-04-25T15:13:57;5.53;;;2.90;;
42616;SDS011;28250;52.320;0.360;2023-04-25T15:16:23;4.25;;;2.50;;
42616;SDS011;28250;52.320;0.360;2023-04-25T15:18:49;5.78;;;2.88;;
42616;SDS011;28250;52.320;0.360;2023-04-25T15:21:15;4.80;;;2.55;;
42616;SDS011;28250;52.320;0.360;2023-04-25T15:23:41;8.80;;;2.90;;
42616;SDS011;28250;52.320;0.360;2023-04-25T15:26:07;8.35;;;3.03;;
42616;SDS011;28250;52.320;0.360;2023-04-25T15:28:33;8.10;;;3.33;;
42616;SDS011;28250;52.320;0.360;2023-04-25T15:31:00;4.78;;;2.78;;